METAR Data
IDs: Format: Raw Decoded Include TAF

Data at: 1122 UTC 16 Feb 2019

PABI 161053Z AUTO 11022G28KT 9SM -SN CLR M16/M19 A3007 RMK AO2 PK WND 11029/0959 SNB45 SLP237 P0000 T11561194 TSNO
PABI 160953Z AUTO 11020G33KT 10SM CLR M16/M19 A3008 RMK AO2 PK WND 11033/0946 SLP242 T11561194 TSNO
PABI 160853Z AUTO 11020KT 10SM CLR M16/M19 A3011 RMK AO2 PK WND 12029/0827 SLP253 T11561194 411501300 50005 TSNO
PABI 160753Z AUTO 12020G27KT 10SM CLR M15/M19 A3011 RMK AO2 PK WND 11028/0718 SLP256 T11501189 TSNO
PABI 160653Z AUTO 12017KT 10SM CLR M15/M19 A3009 RMK AO2 PK WND 11028/0631 SLP252 T11501189 TSNO
PABI 160553Z 11014KT 10SM CLR M16/M19 A3009 RMK AO2 SLP253 T11611194 11161 21206 55005
PABI 160453Z 11012KT 10SM CLR M17/M21 A3009 RMK AO2 SLP254 T11721206
PABI 160353Z 11011KT 10SM CLR M18/M21 A3010 RMK AO2 SLP260 T11781206
PABI 160253Z 13006KT 10SM CLR M18/M21 A3011 RMK AO2 SLP260 T11831211 58001
PABI 160153Z 00000KT 10SM CLR M17/M21 A3012 RMK AO2 SLP264 T11721206
PABI 160053Z 03003KT 10SM CLR M17/M21 A3011 RMK AO2 SLP261 T11671206
PABI 152353Z 09003KT 10SM CLR M17/M21 A3011 RMK AO2 SLP261 T11721211 11172 21294 58010
PABI 152253Z 00000KT 10SM CLR M17/M21 A3013 RMK AO2 SLP267 T11721211
PABI 152153Z 00000KT 10SM CLR M20/M23 A3013 RMK AO2 SLP272 T12001228
PABI 152053Z 00000KT 10SM CLR M22/M24 A3014 RMK AO2 SLP278 T12221244 53003
PABI 151953Z 00000KT 10SM CLR M25/M27 A3014 RMK AO2 SLP278 T12501272
PABI 151853Z 19004KT 10SM CLR M27/M29 A3013 RMK AO2 SLP277 T12721289
PABI 151753Z 17004KT 10SM CLR M27/M29 A3013 RMK AO2 SLP276 T12671294 11250 21300 51011
PABI 151653Z 00000KT 10SM CLR M28/M30 A3012 RMK AO2 SLP272 T12781300
PABI 151553Z 00000KT 10SM CLR M28/M31 A3011 RMK AO2 SLP267 T12781306
PABI 151453Z AUTO 24005KT 10SM CLR M26/M28 A3010 RMK AO2 SLP256 T12611283 51023 TSNO
PABI 151353Z AUTO 20004KT 10SM CLR M27/M28 A3008 RMK AO2 SLP249 T12671283 TSNO
PABI 151253Z AUTO 22004KT 10SM CLR M27/M29 A3005 RMK AO2 SLP240 T12671289 TSNO
PABI 151153Z AUTO 00000KT 10SM CLR M28/M30 A3003 RMK AO2 SLP233 T12781300 11250 21294 53009 TSNO
PABI 151053Z AUTO 21005KT 10SM CLR M28/M31 A3001 RMK AO2 SLP228 T12831306 TSNO
PABI 150953Z AUTO 21003KT 10SM CLR M28/M30 A3000 RMK AO2 SLP224 T12781300 TSNO
PABI 150853Z AUTO 00000KT 10SM CLR M28/M30 A3000 RMK AO2 SLP227 T12781300 411561278 58019 TSNO
PABI 150753Z AUTO 16003KT 10SM CLR M27/M29 A3002 RMK AO2 SLP236 T12721294 TSNO
PABI 150653Z AUTO 18004KT 10SM CLR M25/M27 A3004 RMK AO2 SLP240 T12501272 TSNO
PABI 150553Z 16004KT 10SM FEW030 FEW075 FEW090 M26/M28 A3006 RMK AO2 SLP248 I6000 T12561278 11167 21256 58012
PABI 150453Z 19006KT 10SM FEW030 FEW075 FEW090 M25/M27 A3008 RMK AO2 SLP252 I1000 T12501272
PABI 150353Z 00000KT 10SM FEW030 FEW075 FEW090 M21/M23 A3009 RMK AO2 SLP250 T12111228
PABI 150253Z 20003KT 10SM FEW030 FEW075 FEW090 M19/M21 A3009 RMK AO2 SLP247 T11891211 56016
PABI 150153Z 10003KT 10SM FEW030 FEW075 FEW150 M17/M20 A3010 RMK AO2 SLP248 T11721200
PABI 150053Z 34003KT 10SM FEW030 FEW075 FEW140 M17/M19 A3012 RMK AO2 SLP254 T11671194
PABI 142353Z 00000KT 10SM FEW030 FEW075 SCT140 M17/M19 A3014 RMK AO2 SLP260 T11671189 11167 21244 58025